ADDS METAR Data INFO
IDs: Format: Raw Decoded Include TAF

Data at: 1026 UTC 16 Aug 2018

KHCR 161015Z AUTO 00000KT 10SM CLR 17/07 A3020 RMK AO2